PKCYA WIHH-WIHH
Flight info
| Callsign | PKCYA |
|---|---|
| Flight time | 0h 17m |
| Altitude | 1000 |
| Route | CIRCUIT LEFT |
| Aircraft | C172/L-V/N |
Departure
| Time | 2026-04-18 02:14 |
|---|---|
| Airport | Halim Perdanakusuma International Airport (WIHH) |
Arrival
| Time | 2026-04-18 02:32 |
|---|---|
| Airport | Halim Perdanakusuma International Airport (WIHH) |
| Time | Latitude | Longitude | Altitude | Speed | Heading |
|---|---|---|---|---|---|
| 2026-04-18 01:45 | -6.25971 | 106.89893 | 88 ft | 0 kts | 72° |
| 2026-04-18 02:09 | -6.25970 | 106.89896 | 89 ft | 4 kts | 72° |
| 2026-04-18 02:09 | -6.26015 | 106.89950 | 90 ft | 14 kts | 164° |
| 2026-04-18 02:10 | -6.26090 | 106.89987 | 89 ft | 17 kts | 212° |
| 2026-04-18 02:10 | -6.26156 | 106.89981 | 88 ft | 0 kts | 163° |
| 2026-04-18 02:10 | -6.26159 | 106.89982 | 88 ft | 2 kts | 161° |
| 2026-04-18 02:11 | -6.26197 | 106.89994 | 89 ft | 9 kts | 164° |
| 2026-04-18 02:11 | -6.26263 | 106.89973 | 89 ft | 12 kts | 247° |
| 2026-04-18 02:11 | -6.26268 | 106.89962 | 89 ft | 0 kts | 245° |
| 2026-04-18 02:12 | -6.26271 | 106.89957 | 92 ft | 4 kts | 240° |
| 2026-04-18 02:12 | -6.26307 | 106.89884 | 89 ft | 20 kts | 246° |
| 2026-04-18 02:12 | -6.26391 | 106.89697 | 88 ft | 39 kts | 246° |
| 2026-04-18 02:13 | -6.26537 | 106.89380 | 87 ft | 63 kts | 244° |
| 2026-04-18 02:13 | -6.26759 | 106.88920 | 91 ft | 83 kts | 248° |
| 2026-04-18 02:13 | -6.26989 | 106.88380 | 183 ft | 84 kts | 250° |
| 2026-04-18 02:13 | -6.27264 | 106.87878 | 367 ft | 80 kts | 230° |
| 2026-04-18 02:14 | -6.27557 | 106.87405 | 507 ft | 82 kts | 233° |
| 2026-04-18 02:14 | -6.27877 | 106.86932 | 661 ft | 78 kts | 251° |
| 2026-04-18 02:14 | -6.28066 | 106.86355 | 752 ft | 87 kts | 241° |
| 2026-04-18 02:14 | -6.28489 | 106.86001 | 952 ft | 75 kts | 194° |
| 2026-04-18 02:15 | -6.28974 | 106.86132 | 1068 ft | 73 kts | 120° |
| 2026-04-18 02:15 | -6.29373 | 106.86606 | 1018 ft | 106 kts | 144° |
| 2026-04-18 02:15 | -6.30027 | 106.86964 | 1096 ft | 114 kts | 151° |
| 2026-04-18 02:15 | -6.30757 | 106.87297 | 1279 ft | 114 kts | 154° |
| 2026-04-18 02:16 | -6.31521 | 106.87693 | 1163 ft | 129 kts | 147° |
| 2026-04-18 02:16 | -6.32009 | 106.88385 | 1202 ft | 127 kts | 95° |
| 2026-04-18 02:16 | -6.31775 | 106.89232 | 1220 ft | 120 kts | 68° |
| 2026-04-18 02:16 | -6.31445 | 106.89971 | 1135 ft | 121 kts | 66° |
| 2026-04-18 02:17 | -6.31044 | 106.90694 | 1099 ft | 115 kts | 59° |
| 2026-04-18 02:17 | -6.30653 | 106.91390 | 1002 ft | 116 kts | 65° |
| 2026-04-18 02:17 | -6.30225 | 106.92066 | 937 ft | 113 kts | 53° |
| 2026-04-18 02:17 | -6.29737 | 106.92703 | 849 ft | 113 kts | 56° |
| 2026-04-18 02:18 | -6.29352 | 106.93347 | 902 ft | 106 kts | 61° |
| 2026-04-18 02:18 | -6.29013 | 106.93964 | 1019 ft | 100 kts | 64° |
| 2026-04-18 02:18 | -6.28671 | 106.94589 | 1050 ft | 104 kts | 65° |
| 2026-04-18 02:18 | -6.28332 | 106.95194 | 1193 ft | 99 kts | 62° |
| 2026-04-18 02:19 | -6.27845 | 106.95712 | 1190 ft | 110 kts | 32° |
| 2026-04-18 02:19 | -6.27098 | 106.95875 | 1171 ft | 113 kts | 1° |
| 2026-04-18 02:19 | -6.26319 | 106.95629 | 993 ft | 127 kts | 332° |
| 2026-04-18 02:19 | -6.25685 | 106.95028 | 1016 ft | 116 kts | 317° |
| 2026-04-18 02:20 | -6.25060 | 106.94504 | 1006 ft | 117 kts | 330° |
| 2026-04-18 02:20 | -6.24369 | 106.94068 | 927 ft | 121 kts | 322° |
| 2026-04-18 02:20 | -6.23965 | 106.93347 | 751 ft | 127 kts | 272° |
| 2026-04-18 02:20 | -6.24284 | 106.92581 | 717 ft | 111 kts | 238° |
| 2026-04-18 02:21 | -6.24659 | 106.91899 | 622 ft | 111 kts | 233° |
| 2026-04-18 02:21 | -6.25179 | 106.91380 | 630 ft | 94 kts | 208° |
| 2026-04-18 02:21 | -6.25551 | 106.90841 | 565 ft | 97 kts | 244° |
| 2026-04-18 02:21 | -6.26003 | 106.90319 | 357 ft | 94 kts | 229° |
| 2026-04-18 02:22 | -6.26337 | 106.89790 | 161 ft | 88 kts | 244° |
| 2026-04-18 02:22 | -6.26573 | 106.89287 | 87 ft | 69 kts | 244° |
| 2026-04-18 02:22 | -6.26761 | 106.88923 | 88 ft | 53 kts | 247° |
| 2026-04-18 02:22 | -6.26899 | 106.88599 | 84 ft | 56 kts | 246° |
| 2026-04-18 02:23 | -6.27124 | 106.88128 | 131 ft | 86 kts | 242° |
| 2026-04-18 02:23 | -6.27428 | 106.87546 | 257 ft | 97 kts | 233° |
| 2026-04-18 02:23 | -6.27757 | 106.87007 | 434 ft | 100 kts | 241° |
| 2026-04-18 02:23 | -6.28188 | 106.86425 | 624 ft | 100 kts | 219° |
| 2026-04-18 02:24 | -6.28703 | 106.85968 | 732 ft | 105 kts | 211° |
| 2026-04-18 02:24 | -6.29378 | 106.85921 | 873 ft | 101 kts | 157° |
| 2026-04-18 02:24 | -6.30046 | 106.86178 | 1053 ft | 109 kts | 158° |
| 2026-04-18 02:24 | -6.30777 | 106.86482 | 1166 ft | 109 kts | 150° |
| 2026-04-18 02:25 | -6.31222 | 106.87048 | 1253 ft | 114 kts | 103° |
| 2026-04-18 02:25 | -6.31168 | 106.87817 | 1363 ft | 113 kts | 65° |
| 2026-04-18 02:25 | -6.30780 | 106.88534 | 1363 ft | 121 kts | 61° |
| 2026-04-18 02:25 | -6.30299 | 106.89263 | 1063 ft | 128 kts | 57° |
| 2026-04-18 02:26 | -6.29800 | 106.89960 | 1057 ft | 113 kts | 61° |
| 2026-04-18 02:26 | -6.29465 | 106.90675 | 930 ft | 116 kts | 68° |
| 2026-04-18 02:26 | -6.29105 | 106.91367 | 865 ft | 113 kts | 61° |
| 2026-04-18 02:26 | -6.28706 | 106.92036 | 846 ft | 106 kts | 64° |
| 2026-04-18 02:27 | -6.28422 | 106.92755 | 762 ft | 109 kts | 76° |
| 2026-04-18 02:27 | -6.28242 | 106.93418 | 896 ft | 101 kts | 70° |
| 2026-04-18 02:27 | -6.27939 | 106.94028 | 1045 ft | 91 kts | 62° |
| 2026-04-18 02:27 | -6.27636 | 106.94602 | 1125 ft | 93 kts | 68° |
| 2026-04-18 02:28 | -6.27394 | 106.95226 | 1120 ft | 100 kts | 65° |
| 2026-04-18 02:28 | -6.27051 | 106.95813 | 1125 ft | 101 kts | 66° |
| 2026-04-18 02:28 | -6.26627 | 106.96418 | 1007 ft | 112 kts | 41° |
| 2026-04-18 02:28 | -6.25929 | 106.96595 | 1013 ft | 115 kts | 349° |
| 2026-04-18 02:29 | -6.25232 | 106.96140 | 952 ft | 114 kts | 329° |
| 2026-04-18 02:29 | -6.24566 | 106.95692 | 884 ft | 111 kts | 327° |
| 2026-04-18 02:29 | -6.24172 | 106.95075 | 871 ft | 111 kts | 279° |
| 2026-04-18 02:29 | -6.24370 | 106.94323 | 810 ft | 110 kts | 245° |
| 2026-04-18 02:30 | -6.24713 | 106.93625 | 699 ft | 107 kts | 248° |
| 2026-04-18 02:30 | -6.24926 | 106.92926 | 612 ft | 99 kts | 252° |
| 2026-04-18 02:30 | -6.25227 | 106.92323 | 534 ft | 103 kts | 237° |
| 2026-04-18 02:30 | -6.25542 | 106.91661 | 415 ft | 107 kts | 252° |
| 2026-04-18 02:31 | -6.25734 | 106.91036 | 408 ft | 84 kts | 241° |
| 2026-04-18 02:31 | -6.26009 | 106.90534 | 287 ft | 83 kts | 245° |
| 2026-04-18 02:31 | -6.26255 | 106.89996 | 122 ft | 84 kts | 243° |
| 2026-04-18 02:31 | -6.26467 | 106.89529 | 89 ft | 60 kts | 242° |
| 2026-04-18 02:32 | -6.26620 | 106.89203 | 89 ft | 45 kts | 247° |
| 2026-04-18 02:32 | -6.26741 | 106.88942 | 87 ft | 38 kts | 246° |
| 2026-04-18 02:32 | -6.26912 | 106.88567 | 84 ft | 80 kts | 249° |
| 2026-04-18 02:32 | -6.27205 | 106.88028 | 219 ft | 89 kts | 238° |
| 2026-04-18 02:33 | -6.27480 | 106.87452 | 405 ft | 92 kts | 243° |
| 2026-04-18 02:33 | -6.27754 | 106.86845 | 476 ft | 106 kts | 242° |
| 2026-04-18 02:33 | -6.28065 | 106.86230 | 787 ft | 90 kts | 240° |
| 2026-04-18 02:33 | -6.28546 | 106.85857 | 881 ft | 96 kts | 184° |
| 2026-04-18 02:34 | -6.29129 | 106.86034 | 1052 ft | 91 kts | 150° |
| 2026-04-18 02:34 | -6.29743 | 106.86390 | 1082 ft | 110 kts | 148° |
| 2026-04-18 02:34 | -6.30290 | 106.86862 | 1396 ft | 100 kts | 111° |
| 2026-04-18 02:34 | -6.30180 | 106.87577 | 1422 ft | 110 kts | 64° |
| 2026-04-18 02:35 | -6.29771 | 106.88288 | 1124 ft | 127 kts | 64° |
| 2026-04-18 02:35 | -6.29511 | 106.88805 | 1060 ft | 124 kts | 64° |
| 2026-04-18 02:35 | -6.29106 | 106.89551 | 941 ft | 122 kts | 62° |
| 2026-04-18 02:35 | -6.28677 | 106.90268 | 896 ft | 112 kts | 59° |
| 2026-04-18 02:36 | -6.28342 | 106.90983 | 850 ft | 111 kts | 65° |
| 2026-04-18 02:36 | -6.27867 | 106.91847 | 883 ft | 109 kts | 62° |
| 2026-04-18 02:36 | -6.27597 | 106.92283 | 931 ft | 108 kts | 55° |
| 2026-04-18 02:36 | -6.27140 | 106.92861 | 944 ft | 109 kts | 61° |
| 2026-04-18 02:37 | -6.26832 | 106.93557 | 950 ft | 110 kts | 66° |
| 2026-04-18 02:37 | -6.26484 | 106.94246 | 1001 ft | 107 kts | 63° |
| 2026-04-18 02:37 | -6.26091 | 106.94918 | 985 ft | 110 kts | 52° |
| 2026-04-18 02:37 | -6.25398 | 106.95267 | 889 ft | 118 kts | 359° |
| 2026-04-18 02:38 | -6.24619 | 106.94997 | 800 ft | 126 kts | 328° |
| 2026-04-18 02:38 | -6.24250 | 106.94249 | 849 ft | 127 kts | 268° |
| 2026-04-18 02:38 | -6.24500 | 106.93437 | 736 ft | 122 kts | 243° |
| 2026-04-18 02:38 | -6.24851 | 106.92679 | 596 ft | 119 kts | 240° |
| 2026-04-18 02:39 | -6.25219 | 106.92049 | 593 ft | 94 kts | 238° |
| 2026-04-18 02:39 | -6.25521 | 106.91517 | 495 ft | 85 kts | 231° |
| 2026-04-18 02:39 | -6.25753 | 106.91011 | 389 ft | 79 kts | 243° |
| 2026-04-18 02:39 | -6.26009 | 106.90519 | 277 ft | 75 kts | 243° |
| 2026-04-18 02:40 | -6.26217 | 106.90036 | 140 ft | 78 kts | 237° |
| 2026-04-18 02:40 | -6.26451 | 106.89590 | 87 ft | 59 kts | 249° |
| 2026-04-18 02:40 | -6.26582 | 106.89279 | 87 ft | 41 kts | 248° |
| 2026-04-18 02:40 | -6.26691 | 106.89054 | 88 ft | 32 kts | 243° |
| 2026-04-18 02:41 | -6.26774 | 106.88871 | 88 ft | 27 kts | 244° |
| 2026-04-18 02:41 | -6.26854 | 106.88696 | 86 ft | 27 kts | 238° |
| 2026-04-18 02:41 | -6.26927 | 106.88707 | 86 ft | 4 kts | 103° |
| 2026-04-18 02:41 | -6.26926 | 106.88741 | 85 ft | 7 kts | 72° |
| 2026-04-18 02:42 | -6.26898 | 106.88816 | 88 ft | 16 kts | 64° |
| 2026-04-18 02:42 | -6.26839 | 106.88942 | 87 ft | 24 kts | 66° |
| 2026-04-18 02:42 | -6.26760 | 106.89123 | 86 ft | 32 kts | 67° |
| 2026-04-18 02:42 | -6.26690 | 106.89277 | 87 ft | 17 kts | 68° |
| 2026-04-18 02:43 | -6.26734 | 106.89347 | 88 ft | 12 kts | 160° |
| 2026-04-18 02:43 | -6.26806 | 106.89369 | 86 ft | 9 kts | 154° |
| 2026-04-18 02:43 | -6.26831 | 106.89380 | 89 ft | 0 kts | 156° |